Flight Track Log - Related Links

Times and Time Zones

All times are in EDT time to prevent confusion due to time zone crossing. See the RPA3161 flight status page for this flight to view local times or setup timezone preferences in your user account.

Time Position Orientation Groundspeed Altitude Reporting Facility
EDT Latitude Longitude Course Direction KTS MPH feet Rate Location/Type
Thu 12:18:52 PM 44.4586 -73.2253 195° South 195 224 4,400  Level Boston Center
Thu 12:19:52 PM 44.3961 -73.2478 194° South 236 272 7,900 3,400 Climbing Boston Center
Thu 12:20:00 PM 44.0895 -73.2915 195° South  Level FlightAware Approximate
Thu 12:20:52 PM 44.3228 -73.2728 194° South 271 312 11,200  Level Boston Center
Thu 12:21:00 PM 43.9942 -73.3242 194° South  Level FlightAware Approximate
Thu 12:21:52 PM 44.2414 -73.3008 194° South 298 343 14,500  Level Boston Center
Thu 12:22:00 PM 43.8990 -73.3567 195° South  Level FlightAware Approximate
Thu 12:22:52 PM 44.1600 -73.3286 194° South 298 343 17,900  Level Boston Center
Thu 12:23:00 PM 43.8043 -73.3923 195° South  Level FlightAware Approximate
Thu 12:23:52 PM 44.0828 -73.3561 194° South 298 343 20,600  Level Boston Center
Thu 12:24:00 PM 43.7096 -73.4277 195° South  Level FlightAware Approximate
Thu 12:24:52 PM 43.9908 -73.3867 193° South 304 350 22,800  Level Boston Center
Thu 12:25:52 PM 43.9175 -73.4317 204° Southwest 309 356 25,500 2,500 Climbing Boston Center
Thu 12:26:52 PM 43.8356 -73.4906 207° Southwest 309 356 27,800 1,900 Climbing Boston Center
Thu 12:27:52 PM 43.7581 -73.5497 209° Southwest 309 356 29,300 1,300 Climbing Boston Center
Thu 12:28:52 PM 43.6761 -73.6083 207° Southwest 326 375 30,400 1,250 Climbing Boston Center
Thu 12:29:52 PM 43.5925 -73.6442 197° South 335 386 31,800 1,409 Climbing Boston Center
Thu 12:31:04 PM 43.4756 -73.6647 187° South 347 399 33,500 1,000 Climbing Boston Center
Thu 12:32:04 PM 43.3772 -73.6856 189° South 359 413 34,000 250 Climbing Boston Center
Thu 12:33:04 PM 43.2792 -73.7064 189° South 359 413 34,000  Level Boston Center
Thu 12:34:04 PM 43.1808 -73.7242 188° South 359 413 34,000  Level Boston Center
Thu 12:35:04 PM 43.0744 -73.7447 188° South 359 413 34,000  Level Boston Center
Thu 12:36:04 PM 42.9764 -73.7625 188° South 359 413 34,000  Level Boston Center
Thu 12:37:04 PM 42.8781 -73.7803 188° South 359 413 34,000  Level Boston Center
Thu 12:38:04 PM 42.7758 -73.7978 187° South 359 413 34,000  Level Boston Center
Thu 12:39:04 PM 42.6758 -73.7983 180° South 365 420 34,000  Level Boston Center
Thu 12:40:04 PM 42.5739 -73.7822 173° South 370 426 34,000  Level Boston Center
Thu 12:41:04 PM 42.4697 -73.7658 173° South 370 426 34,000  Level Boston Center
Thu 12:42:04 PM 42.3636 -73.7494 173° South 376 433 34,000  Level Boston Center
Thu 12:43:04 PM 42.2575 -73.7306 172° South 381 438 34,000  Level Boston Center
Thu 12:44:04 PM 42.1536 -73.7172 175° South 386 444 34,000  Level Boston Center
Thu 12:45:04 PM 42.0475 -73.6981 172° South 381 438 34,000  Level Boston Center
Thu 12:46:04 PM 41.9414 -73.6822 174° South 386 444 34,000  Level Boston Center
Thu 12:47:04 PM 41.8372 -73.6689 175° South 386 444 34,000  Level Boston Center
Thu 12:48:04 PM 41.7333 -73.6531 174° South 386 444 34,000  Level Boston Center
Thu 12:49:04 PM 41.6292 -73.6372 174° South 386 444 34,000  Level Boston Center
Thu 12:51:05 PM 41.4275 -73.6017 172° South 394 453 34,000  Level New York Center
Thu 12:52:05 PM 41.3217 -73.5917 176° South 388 447 34,000  Level New York Center
Thu 12:53:05 PM 41.2392 -73.6461 206° Southwest 342 394 34,000  Level New York Center
Thu 12:54:06 PM 41.1889 -73.7406 235° Southwest 331 381 34,000  Level New York Center
Thu 12:55:03 PM 41.1322 -73.8372 232° Southwest 331 381 34,000  Level New York Center
Thu 12:56:04 PM 41.0756 -73.9336 232° Southwest 336 387 34,000 -49 Level New York Center
Thu 12:57:05 PM 41.0167 -74.0328 232° Southwest 343 395 33,900 -454 Descending New York Center
Thu 12:58:03 PM 40.9578 -74.1286 231° Southwest 343 395 33,100 -756 Descending New York Center
Thu 12:59:04 PM 40.8967 -74.2244 230° Southwest 343 395 32,400 -857 Descending New York Center
Thu 01:00:02 PM 40.8394 -74.3231 233° Southwest 338 389 31,400 -1,008 Descending New York Center
Thu 01:01:03 PM 40.7781 -74.4214 231° Southwest 338 389 30,400 -1,388 Descending New York Center
Thu 01:02:03 PM 40.7208 -74.5167 232° Southwest 343 395 28,600 -1,200 Descending New York Center
Thu 01:03:03 PM 40.6658 -74.6094 232° Southwest 338 389 28,000 -298 Descending New York Center
Thu 01:04:04 PM 40.6089 -74.6992 230° Southwest 333 383 28,000  Level New York Center
Thu 01:05:05 PM 40.5494 -74.7886 229° Southwest 333 383 28,000 -706 Level New York Center
Thu 01:06:03 PM 40.4881 -74.8778 228° Southwest 333 383 26,600 -1,563 Descending New York Center
Thu 01:07:04 PM 40.4311 -74.9592 227° Southwest 317 365 24,900 -1,672 Descending New York Center
Thu 01:08:05 PM 40.3719 -75.0400 226° Southwest 317 365 23,200 -1,563 Descending New York Center
Thu 01:09:03 PM 40.3167 -75.1208 228° Southwest 312 359 21,800 -1,073 Descending New York Center
Thu 01:11:04 PM 40.2067 -75.2769 227° Southwest 306 352 20,000 -593 Descending New York Center
Thu 01:12:05 PM 40.1494 -75.3547 226° Southwest 306 352 20,000  Level New York Center
Thu 01:13:03 PM 40.0944 -75.4325 227° Southwest 306 352 20,000  Level New York Center
Thu 01:14:04 PM 40.0392 -75.5075 226° Southwest 306 352 20,000  Level New York Center
Thu 01:15:04 PM 39.9817 -75.5875 227° Southwest 306 352 20,000  Level New York Center
Thu 01:16:05 PM 39.9264 -75.6650 227° Southwest 306 352 20,000  Level New York Center
Thu 01:17:03 PM 39.8811 -75.7511 236° Southwest 306 352 20,000  Level New York Center
Thu 01:18:04 PM 39.8339 -75.8342 234° Southwest 300 345 20,000  Level New York Center
Thu 01:19:03 PM 39.7903 -75.9258 238° Southwest 295 339 20,000  Level New York Center
Thu 01:20:04 PM 39.7469 -76.0089 236° Southwest 295 339 20,000  Level New York Center
Thu 01:21:05 PM 39.6972 -76.0969 234° Southwest 300 345 20,000 -50 Level New York Center
Thu 01:22:03 PM 39.6517 -76.1825 235° Southwest 300 345 19,900 -661 Descending New York Center
Thu 01:23:03 PM 39.6014 -76.2783 236° Southwest 292 336 18,700 -1,301 Descending New York Center
Thu 01:23:26 PM 39.5833 -76.3000 223° Southwest 289 333 18,100 -3,236 Descending Potomac TRACON
Thu 01:24:32 PM 39.5000 -76.3667 212° Southwest 309 356 13,900 -2,905 Descending Potomac TRACON
Thu 01:25:32 PM 39.4333 -76.4333 218° Southwest 296 341 12,000 -1,250 Descending Potomac TRACON
Thu 01:26:32 PM 39.3667 -76.5000 218° Southwest 297 342 11,400 -750 Descending Potomac TRACON
Thu 01:27:32 PM 39.3000 -76.5500 210° Southwest 300 345 10,500 -700 Descending Potomac TRACON
Thu 01:28:32 PM 39.2333 -76.6167 218° Southwest 284 327 10,000 -250 Descending Potomac TRACON
Thu 01:29:32 PM 39.1667 -76.6667 210° Southwest 276 318 10,000  Level Potomac TRACON
Thu 01:30:32 PM 39.1000 -76.7333 218° Southwest 274 315 10,000  Level Potomac TRACON
Thu 01:31:27 PM 39.0500 -76.8000 226° Southwest 273 314 10,000 -939 Level Potomac TRACON
Thu 01:32:27 PM 39.0000 -76.8667 226° Southwest 273 314 8,200 -1,850 Descending Potomac TRACON
Thu 01:33:27 PM 38.9500 -76.9333 226° Southwest 269 310 6,300 -1,100 Descending Potomac TRACON
Thu 01:34:27 PM 38.8833 -76.9500 191° South 236 272 6,000 -767 Descending Potomac TRACON
Thu 01:36:27 PM 38.7500 -76.9500 180° South 208 239 4,000 -829 Descending Potomac TRACON
Thu 01:37:28 PM 38.7000 -76.9333 165° South 177 204 3,500 -744 Descending Potomac TRACON
Thu 01:38:28 PM 38.6500 -76.9333 180° South 181 208 2,500 -500 Descending Potomac TRACON
Thu 01:39:28 PM 38.6000 -76.9333 180° South 179 206 2,500  Level Potomac TRACON
Thu 01:40:28 PM 38.5667 -76.9500 201° Southwest 193 222 2,500  Level Potomac TRACON
Thu 01:41:28 PM 38.5833 -77.0000 293° West 172 198 2,500  Level Potomac TRACON
Thu 01:42:34 PM 38.6333 -77.0167 345° North 170 196 2,500  Level Potomac TRACON
Thu 01:43:34 PM 38.6667 -77.0333 339° North 170 196 2,500 -100 Level Potomac TRACON
Thu 01:44:34 PM 38.7167 -77.0333 360° North 168 193 2,300 -200 Descending Potomac TRACON

Login

Don't have an account? Register now (free) for customized features, flight alerts, and more!